Time;durP1;ratioP1;P1;durP2;ratioP2;P2;SDS_P1;SDS_P2;PMS_P1;PMS_P2;Temp;Humidity;BMP_temperature;BMP_pressure;BME280_temperature;BME280_humidity;BME280_pressure;Samples;Min_cycle;Max_cycle;Signal;HPM_P1;HPM_P2
2021/08/08 00:00:21;;;;;;;0.52;0.52;;;;;;;17.26;48.18;99987.28;7807878;29;20051;-69
2021/08/08 00:04:12;;;;;;;0.85;0.60;;;;;;;17.25;48.33;99988.25;7807944;29;20036;-69
2021/08/08 00:08:03;;;;;;;0.85;0.70;;;;;;;17.26;48.37;99983.78;7808300;29;20669;-69
2021/08/08 00:11:53;;;;;;;5.53;0.70;;;;;;;17.25;48.52;99984.78;7806918;29;20039;-69
2021/08/08 00:15:44;;;;;;;5.47;0.73;;;;;;;17.25;48.35;99988.25;7807825;29;20130;-69
2021/08/08 00:19:35;;;;;;;2.38;0.70;;;;;;;17.25;48.46;99992.72;7807384;29;20036;-69
2021/08/08 00:23:25;;;;;;;0.90;0.70;;;;;;;17.25;48.59;99998.88;7805664;29;20393;-69
2021/08/08 00:27:17;;;;;;;2.65;0.90;;;;;;;17.20;48.42;99985.25;7806267;29;20454;-69
2021/08/08 00:31:08;;;;;;;1.40;0.90;;;;;;;17.21;48.34;99991.41;7804774;29;20568;-69
2021/08/08 00:34:58;;;;;;;2.00;0.90;;;;;;;17.18;48.65;99997.03;7809193;29;20031;-69
2021/08/08 00:38:49;;;;;;;1.13;0.80;;;;;;;17.17;48.29;100003.34;7811007;29;20040;-69
2021/08/08 00:42:42;;;;;;;1.73;0.77;;;;;;;17.15;48.76;100005.34;7804385;29;20046;-69
2021/08/08 00:46:34;;;;;;;1.08;0.82;;;;;;;17.10;48.73;100000.53;7805356;29;20038;-69
2021/08/08 00:50:25;;;;;;;1.17;0.77;;;;;;;17.06;48.86;100004.50;7803968;29;20071;-69
2021/08/08 00:54:17;;;;;;;2.85;0.90;;;;;;;17.01;48.91;99996.19;7804429;29;20040;-69
2021/08/08 00:58:08;;;;;;;1.92;0.98;;;;;;;17.02;48.82;100008.47;7803814;29;20408;-69
2021/08/08 01:02:04;;;;;;;1.50;0.80;;;;;;;16.99;48.82;100014.94;7803823;29;20039;-69
2021/08/08 01:06:12;;;;;;;4.57;0.80;;;;;;;16.95;48.88;100015.41;7805287;29;20040;-69
2021/08/08 01:10:05;;;;;;;2.38;1.05;;;;;;;16.94;49.05;100017.25;7804281;29;20044;-69
2021/08/08 01:14:02;;;;;;;1.70;0.70;;;;;;;16.93;48.84;100018.25;7806337;29;20171;-69
2021/08/08 01:17:58;;;;;;;2.55;1.23;;;;;;;16.94;48.96;100016.44;7803787;29;20468;-69
2021/08/08 01:21:51;;;;;;;2.20;1.20;;;;;;;16.92;48.93;100013.94;7804470;29;20508;-69
2021/08/08 01:25:45;;;;;;;2.80;1.00;;;;;;;16.89;49.11;100024.00;7788105;29;20634;-69
2021/08/08 01:29:37;;;;;;;2.47;1.08;;;;;;;16.82;49.17;100015.03;7803918;29;20032;-69
2021/08/08 01:33:28;;;;;;;1.13;0.82;;;;;;;16.84;49.10;100036.91;7804564;29;20040;-69
2021/08/08 01:37:26;;;;;;;5.57;1.23;;;;;;;16.81;49.21;100043.38;7809722;29;20044;-69
2021/08/08 01:41:21;;;;;;;3.08;1.27;;;;;;;16.79;49.08;100048.00;7810235;29;20055;-69
2021/08/08 01:45:22;;;;;;;2.08;1.00;;;;;;;16.78;49.17;100054.28;7809464;29;20401;-69
2021/08/08 01:49:17;;;;;;;2.10;1.00;;;;;;;16.76;49.23;100055.47;7809189;29;20103;-69
2021/08/08 01:53:09;;;;;;;1.95;0.90;;;;;;;16.77;49.21;100057.13;7810717;29;20028;-69
2021/08/08 01:57:02;;;;;;;4.07;0.93;;;;;;;16.75;49.17;100054.63;7808712;29;20485;-69
2021/08/08 02:00:55;;;;;;;2.17;1.27;;;;;;;16.76;49.09;100056.28;7809049;29;20394;-69
2021/08/08 02:04:52;;;;;;;1.63;1.00;;;;;;;16.74;49.19;100047.66;7809452;29;20048;-69
2021/08/08 02:08:44;;;;;;;2.55;1.10;;;;;;;16.71;49.17;100065.72;7808522;29;20065;-69
2021/08/08 02:12:39;;;;;;;3.33;1.10;;;;;;;16.67;49.14;100059.06;7808914;29;20036;-69
2021/08/08 02:16:31;;;;;;;6.20;1.10;;;;;;;16.60;49.24;100057.06;7809746;29;20042;-69
2021/08/08 02:20:23;;;;;;;2.22;0.82;;;;;;;16.61;49.29;100072.00;7808153;29;20583;-69
2021/08/08 02:24:22;;;;;;;3.63;1.40;;;;;;;16.55;49.04;100069.97;7808148;29;20043;-69
2021/08/08 02:28:22;;;;;;;4.07;1.20;;;;;;;16.51;49.12;100087.19;7808317;29;20048;-69
2021/08/08 02:32:15;;;;;;;9.20;1.67;;;;;;;16.46;49.07;100083.34;7808301;29;20111;-69
2021/08/08 02:36:07;;;;;;;1.23;1.00;;;;;;;16.40;49.23;100076.03;7803457;29;20083;-69
2021/08/08 02:40:03;;;;;;;4.28;1.20;;;;;;;16.39;49.25;100088.44;7806890;29;20043;-69
2021/08/08 02:43:54;;;;;;;5.13;0.95;;;;;;;16.37;49.17;100092.25;7808443;29;20060;-69
2021/08/08 02:47:46;;;;;;;4.65;1.33;;;;;;;16.33;49.23;100096.19;7807668;29;20123;-69
2021/08/08 02:51:37;;;;;;;2.88;1.30;;;;;;;16.35;49.25;100094.22;7807708;29;20039;-69
2021/08/08 02:55:29;;;;;;;2.97;1.38;;;;;;;16.32;49.08;100103.31;7808791;29;20063;-69
2021/08/08 02:59:25;;;;;;;5.05;1.83;;;;;;;16.29;49.07;100103.63;7808418;29;20056;-69
2021/08/08 03:03:16;;;;;;;4.00;1.20;;;;;;;16.24;49.08;100111.22;7808347;29;20068;-69
2021/08/08 03:07:07;;;;;;;3.55;1.20;;;;;;;16.17;49.10;100107.50;7808492;29;20043;-69
2021/08/08 03:10:58;;;;;;;2.90;0.90;;;;;;;16.16;49.14;100117.28;7802779;29;20039;-69
2021/08/08 03:14:49;;;;;;;6.05;1.30;;;;;;;16.12;49.18;100110.63;7807033;29;20046;-69
2021/08/08 03:18:40;;;;;;;2.08;1.20;;;;;;;16.09;49.24;100121.50;7807253;29;20032;-69
2021/08/08 03:22:31;;;;;;;5.97;1.83;;;;;;;16.06;49.33;100127.13;7808622;29;20048;-69
2021/08/08 03:26:23;;;;;;;3.13;1.20;;;;;;;16.00;49.21;100121.59;7808038;29;20414;-69
2021/08/08 03:30:14;;;;;;;5.55;1.35;;;;;;;15.96;49.28;100122.88;7807584;29;20032;-69
2021/08/08 03:34:06;;;;;;;2.70;1.33;;;;;;;15.95;49.28;100135.34;7791937;29;20377;-69
2021/08/08 03:37:57;;;;;;;2.83;1.10;;;;;;;15.93;49.30;100149.69;7807603;29;20716;-69
2021/08/08 03:41:49;;;;;;;4.07;1.10;;;;;;;15.90;49.24;100150.84;7807137;29;20038;-69
2021/08/08 03:45:42;;;;;;;7.32;1.60;;;;;;;15.90;49.22;100161.44;7807721;29;20043;-69
2021/08/08 03:49:33;;;;;;;4.25;1.10;;;;;;;15.87;49.32;100168.84;7806775;29;20046;-70
2021/08/08 03:53:24;;;;;;;3.65;1.23;;;;;;;15.84;49.16;100174.44;7806203;29;20114;-70
2021/08/08 03:57:15;;;;;;;5.20;1.30;;;;;;;15.81;49.50;100175.59;7799955;29;20796;-69
2021/08/08 04:01:06;;;;;;;3.05;1.70;;;;;;;15.78;49.32;100181.19;7808297;29;20564;-69
2021/08/08 04:04:59;;;;;;;5.55;1.40;;;;;;;15.76;49.41;100185.78;7807333;29;20040;-69
2021/08/08 04:08:50;;;;;;;2.47;1.33;;;;;;;15.67;49.37;100189.34;7807084;29;20042;-69
2021/08/08 04:12:40;;;;;;;3.42;1.35;;;;;;;15.70;49.38;100204.94;7799204;29;20493;-69
2021/08/08 04:16:32;;;;;;;2.60;1.02;;;;;;;15.63;49.27;100193.28;7807978;29;20131;-69
2021/08/08 04:20:23;;;;;;;3.40;1.20;;;;;;;15.63;49.36;100202.03;7793001;29;20714;-69
2021/08/08 04:24:14;;;;;;;4.72;1.42;;;;;;;15.61;49.56;100205.84;7806098;29;20078;-69
2021/08/08 04:28:06;;;;;;;5.03;1.30;;;;;;;15.60;49.56;100210.28;7805007;29;20039;-69
2021/08/08 04:31:57;;;;;;;6.47;1.52;;;;;;;15.57;49.54;100205.31;7800116;29;20456;-69
2021/08/08 04:35:48;;;;;;;3.78;1.40;;;;;;;15.51;49.57;100213.84;7811401;29;20095;-69
2021/08/08 04:39:42;;;;;;;6.68;1.38;;;;;;;15.53;49.69;100225.13;7788189;29;20033;-69
2021/08/08 04:43:33;;;;;;;3.72;1.30;;;;;;;15.54;49.82;100234.69;7810513;29;20043;-69
2021/08/08 04:47:24;;;;;;;8.23;1.95;;;;;;;15.57;50.05;100234.44;7805450;29;20032;-69
2021/08/08 04:51:15;;;;;;;3.55;1.40;;;;;;;15.62;49.82;100237.44;7803796;29;20065;-69
2021/08/08 04:55:07;;;;;;;5.90;1.30;;;;;;;15.61;49.77;100227.84;7804673;29;20488;-69
2021/08/08 04:58:57;;;;;;;4.57;1.75;;;;;;;15.71;49.82;100243.66;7806200;29;20516;-69
2021/08/08 05:02:49;;;;;;;5.97;1.63;;;;;;;15.68;49.94;100236.84;7803323;29;20055;-69
2021/08/08 05:06:41;;;;;;;3.85;1.23;;;;;;;15.74;49.92;100235.44;7807331;29;20043;-69
2021/08/08 05:10:31;;;;;;;6.68;1.33;;;;;;;15.78;50.07;100250.03;7807655;29;20043;-69
2021/08/08 05:14:23;;;;;;;4.55;1.50;;;;;;;15.82;50.08;100255.88;7814887;29;20035;-69
2021/08/08 05:18:14;;;;;;;4.13;1.42;;;;;;;15.82;50.03;100251.41;7820971;29;20482;-69
2021/08/08 05:22:04;;;;;;;3.45;1.38;;;;;;;15.86;50.24;100251.94;7819924;29;20040;-69
2021/08/08 05:25:59;;;;;;;6.97;1.88;;;;;;;15.91;50.15;100262.94;7819382;29;20050;-69
2021/08/08 05:29:50;;;;;;;3.03;1.40;;;;;;;15.94;50.02;100275.84;7817327;29;20050;-69
2021/08/08 05:33:41;;;;;;;4.18;1.45;;;;;;;15.94;50.15;100281.16;7797499;29;20024;-69
2021/08/08 05:37:32;;;;;;;8.35;1.48;;;;;;;15.92;50.13;100283.09;7789302;29;20044;-69
2021/08/08 05:41:22;;;;;;;5.40;1.90;;;;;;;15.92;50.06;100291.06;7803964;29;20044;-69
2021/08/08 05:45:13;;;;;;;1.92;1.10;;;;;;;15.95;50.14;100294.25;7804890;29;20064;-69
2021/08/08 05:49:07;;;;;;;3.63;1.30;;;;;;;16.04;50.22;100303.94;7804615;29;20545;-69
2021/08/08 05:52:58;;;;;;;5.05;1.50;;;;;;;16.16;50.13;100302.75;7804446;29;20032;-69
2021/08/08 05:56:49;;;;;;;4.45;1.58;;;;;;;16.25;50.13;100305.47;7800749;29;20137;-69
2021/08/08 06:00:41;;;;;;;5.95;1.45;;;;;;;16.30;50.13;100314.66;7804969;29;20393;-69
2021/08/08 06:04:32;;;;;;;6.25;1.33;;;;;;;16.29;50.17;100315.63;7804068;29;20078;-69
2021/08/08 06:08:24;;;;;;;3.38;1.33;;;;;;;16.27;49.72;100324.75;7812500;29;20075;-69
2021/08/08 06:12:14;;;;;;;7.68;1.77;;;;;;;16.26;50.12;100323.06;7809839;29;20047;-69
2021/08/08 06:16:05;;;;;;;5.07;1.48;;;;;;;16.27;50.12;100327.38;7806987;29;20062;-69
2021/08/08 06:19:56;;;;;;;4.15;1.58;;;;;;;16.26;50.13;100338.97;7803740;29;20514;-69
2021/08/08 06:23:46;;;;;;;2.42;1.20;;;;;;;16.24;50.21;100338.28;7809946;29;20036;-69
2021/08/08 06:27:39;;;;;;;5.70;1.33;;;;;;;16.26;50.18;100346.91;7814799;29;20067;-69
2021/08/08 06:31:30;;;;;;;5.45;1.27;;;;;;;16.21;49.82;100336.75;7807653;29;20638;-69
2021/08/08 06:35:20;;;;;;;5.65;1.75;;;;;;;16.30;50.28;100351.75;7824181;29;20043;-69
2021/08/08 06:39:11;;;;;;;2.53;1.35;;;;;;;16.34;50.07;100358.44;7808734;29;20035;-69
2021/08/08 06:43:04;;;;;;;2.88;1.35;;;;;;;16.36;49.95;100355.63;7803301;29;20071;-69
2021/08/08 06:46:59;;;;;;;3.88;1.30;;;;;;;16.37;50.30;100374.03;7817599;29;20040;-69
2021/08/08 06:50:54;;;;;;;3.53;1.50;;;;;;;16.41;50.30;100383.34;7823366;29;20511;-69
2021/08/08 06:54:45;;;;;;;3.15;1.10;;;;;;;16.41;50.04;100380.69;7808569;29;20055;-69
2021/08/08 06:58:36;;;;;;;4.90;1.00;;;;;;;16.43;50.22;100386.69;7799016;29;20058;-69
2021/08/08 07:02:27;;;;;;;2.78;1.45;;;;;;;16.44;50.24;100383.06;7802260;29;20398;-69
2021/08/08 07:06:18;;;;;;;7.47;1.75;;;;;;;16.57;50.23;100393.28;7812341;29;20048;-69
2021/08/08 07:10:09;;;;;;;3.85;1.40;;;;;;;16.65;50.07;100401.31;7788375;29;20089;-69
2021/08/08 07:14:00;;;;;;;5.13;1.92;;;;;;;16.68;50.04;100397.53;7796468;29;20602;-69
2021/08/08 07:17:51;;;;;;;5.03;1.48;;;;;;;16.66;49.91;100408.28;7803406;29;20560;-69
2021/08/08 07:21:42;;;;;;;3.65;1.38;;;;;;;16.64;50.02;100408.44;7780771;29;20048;-69
2021/08/08 07:25:33;;;;;;;3.20;1.50;;;;;;;16.89;50.01;100412.16;7789395;29;20075;-69
2021/08/08 07:29:25;;;;;;;3.85;1.30;;;;;;;17.02;49.87;100411.78;7787478;29;20612;-69
2021/08/08 07:33:17;;;;;;;5.03;1.38;;;;;;;17.10;49.76;100419.81;7780760;29;20056;-69
2021/08/08 07:37:09;;;;;;;5.75;1.88;;;;;;;17.19;49.61;100423.38;7794125;29;20047;-69
2021/08/08 07:41:02;;;;;;;4.82;1.33;;;;;;;17.20;49.48;100425.00;7789344;29;20040;-69
2021/08/08 07:44:53;;;;;;;6.97;1.67;;;;;;;17.11;49.34;100407.38;7787669;29;20574;-69
2021/08/08 07:48:45;;;;;;;3.80;1.42;;;;;;;17.31;49.25;100433.56;7783656;29;20145;-68
2021/08/08 07:52:37;;;;;;;8.13;1.33;;;;;;;17.36;49.25;100425.94;7781560;29;20083;-69
2021/08/08 07:56:28;;;;;;;3.55;1.52;;;;;;;17.45;48.95;100434.81;7794383;29;20056;-69
2021/08/08 08:00:19;;;;;;;3.22;1.63;;;;;;;17.57;48.78;100440.72;7791200;29;20054;-70
2021/08/08 08:04:15;;;;;;;6.57;1.33;;;;;;;17.88;48.60;100442.75;7782923;29;20043;-70
2021/08/08 08:08:07;;;;;;;6.32;1.40;;;;;;;18.34;48.56;100444.09;7786997;29;20044;-70
2021/08/08 08:11:59;;;;;;;5.13;1.58;;;;;;;18.81;48.62;100436.38;7787100;29;20145;-69
2021/08/08 08:15:50;;;;;;;8.27;2.25;;;;;;;19.12;47.59;100449.03;7793836;29;20047;-70
2021/08/08 08:19:40;;;;;;;8.40;2.05;;;;;;;19.20;47.79;100455.22;7783397;29;20084;-69
2021/08/08 08:23:31;;;;;;;4.47;1.25;;;;;;;19.18;47.48;100459.91;7778507;29;20055;-68
2021/08/08 08:27:22;;;;;;;10.20;2.08;;;;;;;19.06;47.25;100469.16;7779268;29;20043;-70
2021/08/08 08:31:12;;;;;;;5.80;1.60;;;;;;;18.92;47.56;100465.34;7776965;29;20048;-70
2021/08/08 08:35:05;;;;;;;7.13;1.95;;;;;;;18.84;47.06;100459.19;7781506;29;20043;-69
2021/08/08 08:38:56;;;;;;;4.97;1.40;;;;;;;18.87;47.46;100464.16;7777703;29;20065;-69
2021/08/08 08:42:53;;;;;;;6.82;1.60;;;;;;;19.07;47.55;100470.00;7782002;29;20442;-70
2021/08/08 08:46:45;;;;;;;10.82;2.45;;;;;;;19.13;47.10;100474.66;7783245;29;20067;-68
2021/08/08 08:50:37;;;;;;;4.40;1.40;;;;;;;19.38;47.52;100479.03;7780851;29;20135;-69
2021/08/08 08:54:31;;;;;;;5.55;1.63;;;;;;;19.62;47.45;100478.16;7784827;29;20044;-68
2021/08/08 08:58:22;;;;;;;7.20;1.95;;;;;;;19.77;47.08;100477.28;7784010;29;20048;-70
2021/08/08 09:02:14;;;;;;;2.83;1.17;;;;;;;19.86;46.57;100490.63;7781192;29;20086;-69
2021/08/08 09:06:05;;;;;;;10.38;2.38;;;;;;;19.77;46.66;100477.28;7784979;29;20048;-70
2021/08/08 09:09:57;;;;;;;10.50;1.58;;;;;;;19.83;46.34;100494.44;7785764;29;20098;-69
2021/08/08 09:13:57;;;;;;;4.18;1.50;;;;;;;19.86;46.08;100495.94;7780279;29;20164;-69
2021/08/08 09:18:12;;;;;;;7.78;1.58;;;;;;;19.92;45.86;100501.44;7782263;29;20787;-70
2021/08/08 09:22:05;;;;;;;4.82;1.40;;;;;;;19.93;46.12;100513.75;7777000;29;20040;-70
2021/08/08 09:26:00;;;;;;;4.30;1.35;;;;;;;20.02;46.16;100507.41;7813891;23;20055;-70
2021/08/08 09:29:51;;;;;;;7.00;1.60;;;;;;;20.09;46.20;100500.41;7801885;29;20044;-70
2021/08/08 09:33:45;;;;;;;4.40;1.65;;;;;;;20.13;46.17;100512.38;7780429;29;20665;-71
2021/08/08 09:37:36;;;;;;;2.53;1.27;;;;;;;20.15;45.79;100512.19;7787409;29;20568;-68
2021/08/08 09:41:29;;;;;;;5.22;1.75;;;;;;;20.11;45.34;100513.53;7780917;29;20502;-70
2021/08/08 09:45:33;;;;;;;3.35;1.45;;;;;;;20.12;45.53;100518.72;7780831;29;20036;-69
2021/08/08 09:49:26;;;;;;;2.97;1.13;;;;;;;20.10;45.36;100525.19;7778788;29;20095;-70
2021/08/08 09:53:54;;;;;;;3.58;1.42;;;;;;;19.99;44.81;100531.75;7782367;29;20044;-70
2021/08/08 09:57:45;;;;;;;5.65;1.42;;;;;;;19.92;45.20;100541.44;7790804;29;20039;-71
2021/08/08 10:01:39;;;;;;;5.72;1.85;;;;;;;19.83;44.86;100545.91;7788888;29;20566;-70
2021/08/08 10:05:34;;;;;;;4.90;1.60;;;;;;;19.72;44.83;100558.75;7788809;29;20673;-68
2021/08/08 10:09:27;;;;;;;5.13;1.63;;;;;;;19.64;44.80;100546.25;7778504;29;20299;-69
2021/08/08 10:13:40;;;;;;;4.05;1.25;;;;;;;19.57;44.89;100547.09;7783059;29;20050;-68
2021/08/08 10:17:41;;;;;;;3.78;1.10;;;;;;;19.57;44.42;100549.75;7770080;29;20564;-67
2021/08/08 10:21:33;;;;;;;3.40;1.50;;;;;;;19.57;44.70;100558.59;7780021;29;20051;-69
2021/08/08 10:25:24;;;;;;;7.38;1.05;;;;;;;19.55;44.84;100549.94;7782528;29;20044;-70
2021/08/08 10:29:15;;;;;;;2.65;1.30;;;;;;;19.65;44.88;100560.41;7784834;29;20331;-69
2021/08/08 10:33:07;;;;;;;3.75;1.65;;;;;;;19.76;44.73;100555.56;7785208;29;20036;-70
2021/08/08 10:37:14;;;;;;;3.13;1.25;;;;;;;19.88;44.74;100563.25;7784134;29;20481;-72
2021/08/08 10:41:12;;;;;;;5.60;1.58;;;;;;;19.98;44.57;100555.91;7782716;29;20063;-69
2021/08/08 10:45:03;;;;;;;3.57;1.20;;;;;;;19.98;44.83;100563.91;7787233;29;20048;-69
2021/08/08 10:49:03;;;;;;;2.95;1.23;;;;;;;19.97;44.49;100568.38;7784669;29;20530;-69
2021/08/08 10:52:54;;;;;;;1.77;0.95;;;;;;;19.90;44.33;100559.41;7782685;29;20048;-69
2021/08/08 10:56:48;;;;;;;2.30;1.20;;;;;;;19.92;44.34;100573.41;7785051;29;20040;-67
2021/08/08 11:00:39;;;;;;;2.03;0.95;;;;;;;19.99;44.50;100560.22;7792898;29;20028;-68
2021/08/08 11:04:30;;;;;;;3.67;1.00;;;;;;;20.07;44.21;100552.22;7786163;29;20413;-69
2021/08/08 11:08:23;;;;;;;2.50;1.00;;;;;;;20.12;44.02;100556.03;7786414;29;20413;-68
2021/08/08 11:12:16;;;;;;;2.38;1.15;;;;;;;20.20;43.76;100553.34;7790753;29;20730;-68
2021/08/08 11:16:13;;;;;;;7.70;1.42;;;;;;;20.25;43.74;100548.34;7788808;29;20036;-69
2021/08/08 11:20:05;;;;;;;2.58;1.05;;;;;;;20.23;43.74;100553.00;7788619;29;20035;-69
2021/08/08 11:23:59;;;;;;;2.40;1.30;;;;;;;20.23;43.75;100552.16;7785122;29;20052;-70
2021/08/08 11:27:53;;;;;;;2.92;1.25;;;;;;;20.21;43.76;100556.84;7783472;29;20161;-69
2021/08/08 11:31:44;;;;;;;2.17;0.85;;;;;;;20.23;43.70;100550.34;7783281;29;20043;-70
2021/08/08 11:35:35;;;;;;;4.78;1.27;;;;;;;20.37;44.04;100556.81;7785939;29;20028;-71
2021/08/08 11:39:34;;;;;;;3.40;1.50;;;;;;;20.45;43.79;100562.09;7789689;29;20513;-70
2021/08/08 11:43:32;;;;;;;4.38;1.23;;;;;;;20.51;43.70;100568.59;7783487;29;20539;-70
2021/08/08 11:47:26;;;;;;;;;;;;;;;20.44;44.30;100560.44;7784499;29;20516;-69
2021/08/08 11:51:20;;;;;;;2.45;1.17;;;;;;;20.54;43.83;100568.28;7777907;29;19925;-70
2021/08/08 11:55:12;;;;;;;5.60;1.65;;;;;;;20.58;43.18;100572.25;7788873;29;20123;-70
2021/08/08 11:59:02;;;;;;;4.25;1.40;;;;;;;20.50;43.19;100559.75;7792078;29;20035;-68
2021/08/08 12:02:55;;;;;;;1.60;0.82;;;;;;;20.57;43.07;100578.59;7787466;29;20066;-69
2021/08/08 12:06:46;;;;;;;2.95;1.10;;;;;;;20.64;43.35;100566.22;7786443;29;20520;-69
2021/08/08 12:10:38;;;;;;;2.40;1.10;;;;;;;20.68;43.11;100557.69;7789573;29;20047;-69
2021/08/08 12:14:39;;;;;;;2.10;0.98;;;;;;;20.73;42.88;100559.84;7785771;29;20039;-69
2021/08/08 12:18:31;;;;;;;3.80;1.23;;;;;;;20.77;43.02;100563.81;7790983;29;20060;-69
2021/08/08 12:22:28;;;;;;;2.47;1.05;;;;;;;20.76;43.45;100548.00;7778192;29;20048;-70
2021/08/08 12:26:26;;;;;;;4.10;1.10;;;;;;;20.90;43.06;100548.06;7785276;29;20048;-71
2021/08/08 12:30:16;;;;;;;4.20;1.00;;;;;;;20.90;43.11;100550.72;7788108;29;20550;-70
2021/08/08 12:34:11;;;;;;;1.83;0.95;;;;;;;20.95;42.88;100563.56;7782431;29;20028;-71
2021/08/08 12:38:20;;;;;;;2.45;0.80;;;;;;;20.90;42.67;100573.91;7786090;29;20047;-70
2021/08/08 12:42:17;;;;;;;1.65;0.88;;;;;;;20.92;42.79;100554.06;7780595;29;20036;-70
2021/08/08 12:46:11;;;;;;;2.88;1.00;;;;;;;20.95;42.65;100564.38;7782548;29;20070;-70
2021/08/08 12:50:21;;;;;;;3.13;1.27;;;;;;;20.78;43.24;100602.03;7780537;29;20028;-69
2021/08/08 12:54:12;;;;;;;3.97;1.00;;;;;;;20.56;43.09;100584.94;7786139;29;20036;-70
2021/08/08 12:58:04;;;;;;;2.60;0.98;;;;;;;20.38;43.41;100579.81;7784658;29;20054;-70
2021/08/08 13:01:58;;;;;;;4.82;1.80;;;;;;;20.19;43.53;100589.03;7784549;29;20044;-69
2021/08/08 13:05:48;;;;;;;2.78;1.30;;;;;;;20.11;44.13;100581.03;7785931;29;20616;-70
2021/08/08 13:09:39;;;;;;;1.80;1.15;;;;;;;20.11;44.70;100591.72;7781381;29;20040;-69
2021/08/08 13:13:29;;;;;;;4.47;1.15;;;;;;;20.08;44.97;100612.53;7782671;29;20031;-69
2021/08/08 13:17:20;;;;;;;1.58;1.00;;;;;;;20.00;44.69;100648.06;7778490;29;20134;-70
2021/08/08 13:21:12;;;;;;;3.42;1.20;;;;;;;19.78;44.51;100640.69;7774976;29;20040;-69
2021/08/08 13:25:05;;;;;;;2.20;0.93;;;;;;;19.56;44.46;100628.84;7779989;29;20044;-70
2021/08/08 13:28:55;;;;;;;1.48;0.90;;;;;;;19.50;44.84;100645.50;7778126;29;20579;-69
2021/08/08 13:32:46;;;;;;;2.15;0.70;;;;;;;19.47;44.89;100648.50;7786893;29;20040;-70
2021/08/08 13:36:36;;;;;;;1.75;0.85;;;;;;;19.52;45.74;100640.00;7778975;29;20040;-69
2021/08/08 13:40:27;;;;;;;1.15;1.05;;;;;;;19.58;45.95;100634.03;7780043;29;20515;-69
2021/08/08 13:44:18;;;;;;;2.95;0.80;;;;;;;19.53;46.16;100623.84;7787264;29;20675;-70
2021/08/08 13:48:08;;;;;;;2.30;0.80;;;;;;;19.58;45.87;100634.84;7780889;29;20047;-69
2021/08/08 13:51:59;;;;;;;3.85;1.10;;;;;;;19.60;46.26;100630.19;7780289;29;20015;-68
2021/08/08 13:55:50;;;;;;;1.05;0.75;;;;;;;19.61;46.45;100615.03;7787715;29;20226;-70
2021/08/08 13:59:40;;;;;;;1.83;1.20;;;;;;;19.62;46.56;100612.22;7790505;29;20055;-68
2021/08/08 14:03:31;;;;;;;2.83;0.90;;;;;;;19.62;46.42;100611.38;7783027;29;21175;-69
2021/08/08 14:07:22;;;;;;;4.00;1.35;;;;;;;19.62;46.29;100622.03;7788286;29;20036;-69
2021/08/08 14:11:13;;;;;;;5.25;1.33;;;;;;;19.57;46.53;100617.19;7782999;29;20047;-72
2021/08/08 14:15:04;;;;;;;1.73;1.17;;;;;;;19.54;45.99;100616.69;7780714;29;20036;-69
2021/08/08 14:18:55;;;;;;;2.95;0.90;;;;;;;19.58;46.41;100639.34;7778617;29;20052;-71
2021/08/08 14:22:45;;;;;;;1.67;0.90;;;;;;;19.58;46.01;100634.84;7775182;29;20032;-69
2021/08/08 14:26:36;;;;;;;2.92;1.00;;;;;;;19.54;45.93;100641.53;7781379;29;20136;-70
2021/08/08 14:30:27;;;;;;;1.52;0.93;;;;;;;19.46;45.51;100633.50;7780890;29;20436;-73
2021/08/08 14:34:18;;;;;;;5.30;1.10;;;;;;;19.39;45.65;100643.16;7777777;29;20059;-70
2021/08/08 14:38:09;;;;;;;1.55;0.90;;;;;;;19.36;45.54;100648.81;7780374;29;20123;-70
2021/08/08 14:41:59;;;;;;;4.53;0.80;;;;;;;19.41;45.17;100650.97;7786564;29;20728;-72
2021/08/08 14:45:50;;;;;;;1.77;0.88;;;;;;;19.45;45.40;100653.16;7788704;29;20381;-71
2021/08/08 14:49:41;;;;;;;2.55;1.00;;;;;;;19.51;45.55;100659.66;7786019;29;20036;-70
2021/08/08 14:53:31;;;;;;;1.55;0.90;;;;;;;19.57;45.43;100661.66;7785512;29;20038;-70
2021/08/08 14:57:22;;;;;;;1.58;0.77;;;;;;;19.58;44.89;100660.66;7787665;29;20040;-69
2021/08/08 15:01:12;;;;;;;1.73;0.85;;;;;;;19.51;45.00;100676.50;7791164;29;20044;-70
2021/08/08 15:05:04;;;;;;;1.58;0.80;;;;;;;19.47;44.56;100676.97;7787108;29;20304;-69
2021/08/08 15:08:54;;;;;;;1.33;0.90;;;;;;;19.42;44.97;100681.94;7789109;29;20039;-70
2021/08/08 15:12:45;;;;;;;2.55;0.70;;;;;;;19.44;44.92;100693.25;7789376;29;20083;-72
2021/08/08 15:16:36;;;;;;;1.52;0.90;;;;;;;19.44;44.97;100690.59;7792798;29;20028;-69
2021/08/08 15:20:28;;;;;;;1.48;0.90;;;;;;;19.43;44.94;100683.63;7786740;29;20039;-69
2021/08/08 15:24:18;;;;;;;2.70;0.90;;;;;;;19.41;45.04;100690.94;7786035;29;20545;-69
2021/08/08 15:28:09;;;;;;;2.85;0.90;;;;;;;19.38;45.07;100688.59;7787083;29;20067;-73
2021/08/08 15:32:00;;;;;;;3.03;0.98;;;;;;;19.37;45.00;100687.75;7788061;29;20050;-70
2021/08/08 15:35:50;;;;;;;1.00;0.70;;;;;;;19.39;44.98;100690.28;7786009;29;20024;-72
2021/08/08 15:39:41;;;;;;;2.30;1.48;;;;;;;19.38;45.11;100684.13;7789601;29;20048;-69
2021/08/08 15:43:32;;;;;;;4.07;1.05;;;;;;;19.36;44.79;100683.44;7780537;29;20036;-72
2021/08/08 15:47:23;;;;;;;1.48;1.00;;;;;;;19.41;44.99;100688.28;7781987;29;20053;-71
2021/08/08 15:51:13;;;;;;;0.95;0.82;;;;;;;19.41;44.96;100691.78;7778719;29;21002;-70
2021/08/08 15:55:05;;;;;;;3.67;1.30;;;;;;;19.42;44.81;100693.44;7790088;29;20491;-71
2021/08/08 15:58:56;;;;;;;3.47;1.15;;;;;;;19.46;44.85;100699.28;7794456;29;20040;-72
2021/08/08 16:02:46;;;;;;;2.33;0.88;;;;;;;19.47;44.57;100707.13;7785407;29;20054;-71
2021/08/08 16:06:37;;;;;;;5.30;1.10;;;;;;;19.45;44.40;100713.59;7792270;29;20046;-70
2021/08/08 16:10:27;;;;;;;2.60;0.95;;;;;;;19.45;44.61;100717.09;7784749;29;20031;-70
2021/08/08 16:14:18;;;;;;;0.85;0.75;;;;;;;19.40;44.11;100718.56;7784358;29;20585;-72
2021/08/08 16:18:09;;;;;;;4.10;0.95;;;;;;;19.30;44.51;100738.19;7784384;29;20051;-71
2021/08/08 16:22:01;;;;;;;7.93;0.93;;;;;;;19.19;44.20;100737.63;7777398;29;20040;-70
2021/08/08 16:25:52;;;;;;;1.95;0.88;;;;;;;19.14;44.18;100732.75;7784303;29;20562;-70
2021/08/08 16:29:42;;;;;;;3.25;0.88;;;;;;;19.09;44.16;100740.41;7783995;29;20060;-69
2021/08/08 16:33:33;;;;;;;2.17;1.00;;;;;;;19.06;44.30;100740.69;7783512;29;20557;-71
2021/08/08 16:37:24;;;;;;;4.20;1.38;;;;;;;19.04;44.56;100733.88;7786889;29;20039;-71
2021/08/08 16:41:14;;;;;;;2.20;1.10;;;;;;;19.02;43.91;100736.69;7789100;29;20035;-70
2021/08/08 16:45:06;;;;;;;1.30;0.80;;;;;;;19.04;44.14;100745.38;7780861;29;20044;-72
2021/08/08 16:48:56;;;;;;;3.17;1.20;;;;;;;19.03;43.75;100748.19;7782604;29;20039;-70
2021/08/08 16:52:47;;;;;;;2.83;1.00;;;;;;;18.98;43.89;100761.97;7783164;29;20067;-70
2021/08/08 16:56:38;;;;;;;3.53;0.85;;;;;;;18.98;44.27;100751.31;7788068;29;20028;-70
2021/08/08 17:00:29;;;;;;;2.70;0.82;;;;;;;18.94;44.02;100760.59;7789367;29;20635;-71
2021/08/08 17:04:19;;;;;;;2.00;1.00;;;;;;;18.98;43.99;100761.16;7792010;29;20587;-69
2021/08/08 17:08:10;;;;;;;3.50;1.00;;;;;;;18.93;43.99;100764.28;7785942;29;20513;-70
2021/08/08 17:12:02;;;;;;;2.08;0.88;;;;;;;18.93;43.94;100767.75;7783168;29;20051;-74
2021/08/08 17:15:52;;;;;;;2.65;1.25;;;;;;;18.93;43.71;100770.41;7790041;29;20036;-73
2021/08/08 17:19:43;;;;;;;1.42;0.95;;;;;;;18.91;43.81;100774.25;7796268;29;20392;-75
2021/08/08 17:23:33;;;;;;;0.80;0.80;;;;;;;18.84;43.50;100765.22;7798988;29;20131;-77
2021/08/08 17:27:24;;;;;;;4.57;1.08;;;;;;;18.85;43.44;100764.25;7793718;29;20070;-77
2021/08/08 17:31:15;;;;;;;1.65;0.82;;;;;;;18.80;43.30;100771.84;7785478;29;20089;-70
2021/08/08 17:35:06;;;;;;;1.70;0.85;;;;;;;18.81;43.33;100786.84;7782895;29;20061;-70
2021/08/08 17:38:57;;;;;;;1.00;0.80;;;;;;;18.73;43.39;100776.94;7779111;29;20098;-72
2021/08/08 17:42:49;;;;;;;1.10;0.80;;;;;;;18.72;43.39;100775.31;7781476;29;20036;-69
2021/08/08 17:46:39;;;;;;;2.67;1.08;;;;;;;18.70;43.34;100789.72;7789268;29;20043;-72
2021/08/08 17:50:30;;;;;;;2.55;1.15;;;;;;;18.69;43.26;100804.03;7789707;29;20032;-72
2021/08/08 17:54:21;;;;;;;3.67;1.48;;;;;;;18.66;43.38;100860.22;7792434;29;20036;-71
2021/08/08 17:58:14;;;;;;;2.35;1.13;;;;;;;18.52;43.79;100876.72;7788636;29;20098;-72
2021/08/08 18:02:05;;;;;;;2.15;1.00;;;;;;;18.32;44.75;100862.69;7785861;29;20040;-71